sensor_id;sensor_type;location;lat;lon;timestamp;temperature;humidity
36424;DHT22;22458;45.328;9.514;2022-09-09T00:03:47;25.60;75.50
36424;DHT22;22458;45.328;9.514;2022-09-09T00:11:51;25.50;75.60
36424;DHT22;22458;45.328;9.514;2022-09-09T00:17:35;25.50;75.80
36424;DHT22;22458;45.328;9.514;2022-09-09T00:22:30;25.40;76.30
36424;DHT22;22458;45.328;9.514;2022-09-09T00:25:19;25.40;76.20
36424;DHT22;22458;45.328;9.514;2022-09-09T00:27:48;25.40;76.20
36424;DHT22;22458;45.328;9.514;2022-09-09T00:30:22;25.30;76.50
36424;DHT22;22458;45.328;9.514;2022-09-09T00:33:10;25.30;76.50
36424;DHT22;22458;45.328;9.514;2022-09-09T00:35:45;25.30;76.40
36424;DHT22;22458;45.328;9.514;2022-09-09T00:38:13;25.30;76.60
36424;DHT22;22458;45.328;9.514;2022-09-09T00:41:03;25.40;76.70
36424;DHT22;22458;45.328;9.514;2022-09-09T00:43:37;25.30;76.60
36424;DHT22;22458;45.328;9.514;2022-09-09T00:49:24;25.30;76.80
36424;DHT22;22458;45.328;9.514;2022-09-09T00:52:11;25.40;76.80
36424;DHT22;22458;45.328;9.514;2022-09-09T00:55:05;25.40;76.90
36424;DHT22;22458;45.328;9.514;2022-09-09T00:57:35;25.30;77.00
36424;DHT22;22458;45.328;9.514;2022-09-09T01:00:21;25.20;77.10
36424;DHT22;22458;45.328;9.514;2022-09-09T01:03:00;25.30;77.10
36424;DHT22;22458;45.328;9.514;2022-09-09T01:10:58;25.20;77.30
36424;DHT22;22458;45.328;9.514;2022-09-09T01:13:30;25.20;77.50
36424;DHT22;22458;45.328;9.514;2022-09-09T01:16:04;25.20;77.50
36424;DHT22;22458;45.328;9.514;2022-09-09T01:18:39;25.20;77.70
36424;DHT22;22458;45.328;9.514;2022-09-09T01:22:01;25.20;77.80
36424;DHT22;22458;45.328;9.514;2022-09-09T01:24:18;25.20;77.90
36424;DHT22;22458;45.328;9.514;2022-09-09T01:27:02;25.20;78.10
36424;DHT22;22458;45.328;9.514;2022-09-09T01:29:29;25.10;78.20
36424;DHT22;22458;45.328;9.514;2022-09-09T01:31:57;25.00;78.10
36424;DHT22;22458;45.328;9.514;2022-09-09T01:34:27;25.00;78.60
36424;DHT22;22458;45.328;9.514;2022-09-09T01:37:07;25.00;78.60
36424;DHT22;22458;45.328;9.514;2022-09-09T01:39:35;25.00;78.80
36424;DHT22;22458;45.328;9.514;2022-09-09T01:42:09;25.00;78.90
36424;DHT22;22458;45.328;9.514;2022-09-09T01:44:36;25.00;79.20
36424;DHT22;22458;45.328;9.514;2022-09-09T01:47:03;25.00;79.20
36424;DHT22;22458;45.328;9.514;2022-09-09T01:49:30;25.00;79.40
36424;DHT22;22458;45.328;9.514;2022-09-09T01:51:57;25.00;79.30
36424;DHT22;22458;45.328;9.514;2022-09-09T01:54:30;25.00;79.30
36424;DHT22;22458;45.328;9.514;2022-09-09T01:57:23;25.00;79.40
36424;DHT22;22458;45.328;9.514;2022-09-09T02:00:10;25.10;79.30
36424;DHT22;22458;45.328;9.514;2022-09-09T02:06:08;25.00;79.60
36424;DHT22;22458;45.328;9.514;2022-09-09T02:08:46;25.00;79.80
36424;DHT22;22458;45.328;9.514;2022-09-09T02:11:17;25.00;79.90
36424;DHT22;22458;45.328;9.514;2022-09-09T02:13:54;25.00;80.00
36424;DHT22;22458;45.328;9.514;2022-09-09T02:16:50;25.00;80.00
36424;DHT22;22458;45.328;9.514;2022-09-09T02:19:18;25.00;80.00
36424;DHT22;22458;45.328;9.514;2022-09-09T02:22:00;24.90;80.20
36424;DHT22;22458;45.328;9.514;2022-09-09T02:24:29;25.00;80.30
36424;DHT22;22458;45.328;9.514;2022-09-09T02:27:09;25.00;80.30
36424;DHT22;22458;45.328;9.514;2022-09-09T02:29:41;25.00;80.30
36424;DHT22;22458;45.328;9.514;2022-09-09T02:32:15;25.00;80.40
36424;DHT22;22458;45.328;9.514;2022-09-09T02:34:47;24.90;80.50
36424;DHT22;22458;45.328;9.514;2022-09-09T02:37:16;25.00;80.60
36424;DHT22;22458;45.328;9.514;2022-09-09T02:39:46;24.90;80.60
36424;DHT22;22458;45.328;9.514;2022-09-09T02:42:15;25.00;80.60
36424;DHT22;22458;45.328;9.514;2022-09-09T02:44:43;25.00;80.60
36424;DHT22;22458;45.328;9.514;2022-09-09T02:55:45;24.90;80.80
36424;DHT22;22458;45.328;9.514;2022-09-09T02:58:15;24.90;80.90
36424;DHT22;22458;45.328;9.514;2022-09-09T03:00:45;24.80;81.10
36424;DHT22;22458;45.328;9.514;2022-09-09T03:03:12;24.80;81.20
36424;DHT22;22458;45.328;9.514;2022-09-09T03:05:38;24.80;81.30
36424;DHT22;22458;45.328;9.514;2022-09-09T03:08:05;24.80;81.50
36424;DHT22;22458;45.328;9.514;2022-09-09T03:10:32;24.80;81.50
36424;DHT22;22458;45.328;9.514;2022-09-09T03:12:58;24.80;81.60
36424;DHT22;22458;45.328;9.514;2022-09-09T03:15:26;24.80;81.70
36424;DHT22;22458;45.328;9.514;2022-09-09T03:17:57;24.80;81.70
36424;DHT22;22458;45.328;9.514;2022-09-09T03:20:24;24.70;81.80
36424;DHT22;22458;45.328;9.514;2022-09-09T03:22:52;24.70;81.90
36424;DHT22;22458;45.328;9.514;2022-09-09T03:25:19;24.70;82.10
36424;DHT22;22458;45.328;9.514;2022-09-09T03:27:45;24.60;82.20
36424;DHT22;22458;45.328;9.514;2022-09-09T03:30:12;24.60;82.10
36424;DHT22;22458;45.328;9.514;2022-09-09T03:32:38;24.60;82.30
36424;DHT22;22458;45.328;9.514;2022-09-09T03:35:04;24.60;82.40
36424;DHT22;22458;45.328;9.514;2022-09-09T03:37:30;24.60;82.60
36424;DHT22;22458;45.328;9.514;2022-09-09T03:39:57;24.50;82.60
36424;DHT22;22458;45.328;9.514;2022-09-09T03:42:23;24.50;82.70
36424;DHT22;22458;45.328;9.514;2022-09-09T03:44:53;24.50;82.80
36424;DHT22;22458;45.328;9.514;2022-09-09T03:47:23;24.40;83.00
36424;DHT22;22458;45.328;9.514;2022-09-09T03:49:52;24.40;83.20
36424;DHT22;22458;45.328;9.514;2022-09-09T03:52:18;24.40;83.30
36424;DHT22;22458;45.328;9.514;2022-09-09T03:54:44;24.40;83.30
36424;DHT22;22458;45.328;9.514;2022-09-09T03:57:10;24.40;83.20
36424;DHT22;22458;45.328;9.514;2022-09-09T03:59:36;24.40;83.30
36424;DHT22;22458;45.328;9.514;2022-09-09T04:02:03;24.50;83.30
36424;DHT22;22458;45.328;9.514;2022-09-09T04:04:29;24.50;83.20
36424;DHT22;22458;45.328;9.514;2022-09-09T04:06:55;24.50;83.20
36424;DHT22;22458;45.328;9.514;2022-09-09T04:09:20;24.50;83.20
36424;DHT22;22458;45.328;9.514;2022-09-09T04:11:47;24.50;83.20
36424;DHT22;22458;45.328;9.514;2022-09-09T04:14:15;24.50;83.30
36424;DHT22;22458;45.328;9.514;2022-09-09T04:16:41;24.50;83.30
36424;DHT22;22458;45.328;9.514;2022-09-09T04:19:11;24.50;83.20
36424;DHT22;22458;45.328;9.514;2022-09-09T04:21:41;24.50;83.30
36424;DHT22;22458;45.328;9.514;2022-09-09T04:24:07;24.50;83.30
36424;DHT22;22458;45.328;9.514;2022-09-09T04:26:34;24.50;83.40
36424;DHT22;22458;45.328;9.514;2022-09-09T04:29:03;24.50;83.40
36424;DHT22;22458;45.328;9.514;2022-09-09T04:31:29;24.50;83.50
36424;DHT22;22458;45.328;9.514;2022-09-09T04:33:56;24.50;83.50
36424;DHT22;22458;45.328;9.514;2022-09-09T04:36:22;24.50;83.50
36424;DHT22;22458;45.328;9.514;2022-09-09T04:38:50;24.50;83.60
36424;DHT22;22458;45.328;9.514;2022-09-09T04:41:17;24.50;83.60
36424;DHT22;22458;45.328;9.514;2022-09-09T04:43:44;24.50;83.70
36424;DHT22;22458;45.328;9.514;2022-09-09T04:46:11;24.50;83.70
36424;DHT22;22458;45.328;9.514;2022-09-09T04:48:37;24.50;83.70
36424;DHT22;22458;45.328;9.514;2022-09-09T04:51:08;24.50;83.80
36424;DHT22;22458;45.328;9.514;2022-09-09T04:53:35;24.50;83.90
36424;DHT22;22458;45.328;9.514;2022-09-09T04:58:36;24.50;83.80
36424;DHT22;22458;45.328;9.514;2022-09-09T05:03:30;24.60;83.80
36424;DHT22;22458;45.328;9.514;2022-09-09T05:06:04;24.60;83.80
36424;DHT22;22458;45.328;9.514;2022-09-09T05:08:31;24.60;83.70
36424;DHT22;22458;45.328;9.514;2022-09-09T05:10:57;24.60;83.80
36424;DHT22;22458;45.328;9.514;2022-09-09T05:13:23;24.70;83.90
36424;DHT22;22458;45.328;9.514;2022-09-09T05:15:54;24.70;83.80
36424;DHT22;22458;45.328;9.514;2022-09-09T05:18:20;24.70;83.70
36424;DHT22;22458;45.328;9.514;2022-09-09T05:20:49;24.70;83.80
36424;DHT22;22458;45.328;9.514;2022-09-09T05:23:14;24.70;84.40
36424;DHT22;22458;45.328;9.514;2022-09-09T05:25:40;24.70;83.80
36424;DHT22;22458;45.328;9.514;2022-09-09T05:28:07;24.70;83.80
36424;DHT22;22458;45.328;9.514;2022-09-09T05:30:34;24.70;84.00
36424;DHT22;22458;45.328;9.514;2022-09-09T05:33:02;24.60;83.90
36424;DHT22;22458;45.328;9.514;2022-09-09T05:35:28;24.70;84.00
36424;DHT22;22458;45.328;9.514;2022-09-09T05:37:59;24.70;83.90
36424;DHT22;22458;45.328;9.514;2022-09-09T05:40:25;24.70;83.90
36424;DHT22;22458;45.328;9.514;2022-09-09T05:42:51;24.80;83.80
36424;DHT22;22458;45.328;9.514;2022-09-09T05:45:16;24.80;83.70
36424;DHT22;22458;45.328;9.514;2022-09-09T05:47:42;24.80;83.70
36424;DHT22;22458;45.328;9.514;2022-09-09T05:50:12;24.80;83.70
36424;DHT22;22458;45.328;9.514;2022-09-09T05:52:40;24.80;83.70
36424;DHT22;22458;45.328;9.514;2022-09-09T05:55:07;24.90;83.70
36424;DHT22;22458;45.328;9.514;2022-09-09T05:57:33;24.80;83.50
36424;DHT22;22458;45.328;9.514;2022-09-09T05:59:59;24.90;83.40
36424;DHT22;22458;45.328;9.514;2022-09-09T06:02:25;24.90;83.40
36424;DHT22;22458;45.328;9.514;2022-09-09T06:04:51;24.90;83.50
36424;DHT22;22458;45.328;9.514;2022-09-09T06:07:17;24.80;83.50
36424;DHT22;22458;45.328;9.514;2022-09-09T06:09:43;24.80;83.70
36424;DHT22;22458;45.328;9.514;2022-09-09T06:12:09;24.80;83.80
36424;DHT22;22458;45.328;9.514;2022-09-09T06:14:35;24.70;84.00
36424;DHT22;22458;45.328;9.514;2022-09-09T06:17:02;24.80;84.00
36424;DHT22;22458;45.328;9.514;2022-09-09T06:19:29;24.70;84.10
36424;DHT22;22458;45.328;9.514;2022-09-09T06:21:57;24.70;84.30
36424;DHT22;22458;45.328;9.514;2022-09-09T06:24:24;24.70;84.20
36424;DHT22;22458;45.328;9.514;2022-09-09T06:26:50;24.80;84.10
36424;DHT22;22458;45.328;9.514;2022-09-09T06:29:20;24.80;84.00
36424;DHT22;22458;45.328;9.514;2022-09-09T06:31:46;24.80;84.00
36424;DHT22;22458;45.328;9.514;2022-09-09T06:34:15;24.80;84.00
36424;DHT22;22458;45.328;9.514;2022-09-09T06:36:46;24.80;83.90
36424;DHT22;22458;45.328;9.514;2022-09-09T06:39:12;24.80;83.90
36424;DHT22;22458;45.328;9.514;2022-09-09T06:41:39;24.80;83.90
36424;DHT22;22458;45.328;9.514;2022-09-09T06:44:10;24.80;84.00
36424;DHT22;22458;45.328;9.514;2022-09-09T06:46:41;24.80;84.00
36424;DHT22;22458;45.328;9.514;2022-09-09T06:49:09;24.80;83.90
36424;DHT22;22458;45.328;9.514;2022-09-09T06:51:36;24.80;83.80
36424;DHT22;22458;45.328;9.514;2022-09-09T06:54:09;24.80;83.80
36424;DHT22;22458;45.328;9.514;2022-09-09T06:56:37;24.80;83.80
36424;DHT22;22458;45.328;9.514;2022-09-09T06:59:08;24.80;83.80
36424;DHT22;22458;45.328;9.514;2022-09-09T07:01:40;24.80;83.80
36424;DHT22;22458;45.328;9.514;2022-09-09T07:04:10;24.80;83.80
36424;DHT22;22458;45.328;9.514;2022-09-09T07:06:40;24.80;83.90
36424;DHT22;22458;45.328;9.514;2022-09-09T07:09:12;24.80;84.00
36424;DHT22;22458;45.328;9.514;2022-09-09T07:11:51;24.70;83.70
36424;DHT22;22458;45.328;9.514;2022-09-09T07:14:21;24.70;83.00
36424;DHT22;22458;45.328;9.514;2022-09-09T07:16:52;24.50;82.30
36424;DHT22;22458;45.328;9.514;2022-09-09T07:19:18;24.50;81.20
36424;DHT22;22458;45.328;9.514;2022-09-09T07:21:46;24.50;80.20
36424;DHT22;22458;45.328;9.514;2022-09-09T07:24:16;24.50;79.10
36424;DHT22;22458;45.328;9.514;2022-09-09T07:26:42;24.40;78.20
36424;DHT22;22458;45.328;9.514;2022-09-09T07:29:11;24.40;77.30
36424;DHT22;22458;45.328;9.514;2022-09-09T07:31:40;24.40;77.50
36424;DHT22;22458;45.328;9.514;2022-09-09T07:34:10;24.40;76.80
36424;DHT22;22458;45.328;9.514;2022-09-09T07:36:39;24.50;76.30
36424;DHT22;22458;45.328;9.514;2022-09-09T07:39:10;24.50;75.70
36424;DHT22;22458;45.328;9.514;2022-09-09T07:41:40;24.50;75.20
36424;DHT22;22458;45.328;9.514;2022-09-09T07:44:18;24.60;74.80
36424;DHT22;22458;45.328;9.514;2022-09-09T07:46:48;24.70;74.60
36424;DHT22;22458;45.328;9.514;2022-09-09T07:49:19;24.70;74.40
36424;DHT22;22458;45.328;9.514;2022-09-09T07:51:46;24.70;74.20
36424;DHT22;22458;45.328;9.514;2022-09-09T07:54:16;24.80;74.00
36424;DHT22;22458;45.328;9.514;2022-09-09T07:56:44;24.80;73.50
36424;DHT22;22458;45.328;9.514;2022-09-09T07:59:11;24.80;73.00
36424;DHT22;22458;45.328;9.514;2022-09-09T08:01:45;24.80;72.70
36424;DHT22;22458;45.328;9.514;2022-09-09T08:04:18;24.80;72.00
36424;DHT22;22458;45.328;9.514;2022-09-09T08:06:48;24.80;72.00
36424;DHT22;22458;45.328;9.514;2022-09-09T08:09:16;24.90;71.90
36424;DHT22;22458;45.328;9.514;2022-09-09T08:11:42;25.00;72.10
36424;DHT22;22458;45.328;9.514;2022-09-09T08:14:09;25.10;72.10
36424;DHT22;22458;45.328;9.514;2022-09-09T08:16:42;25.10;72.00
36424;DHT22;22458;45.328;9.514;2022-09-09T08:19:08;25.20;71.70
36424;DHT22;22458;45.328;9.514;2022-09-09T08:21:36;25.20;71.50
36424;DHT22;22458;45.328;9.514;2022-09-09T08:24:04;25.30;71.10
36424;DHT22;22458;45.328;9.514;2022-09-09T08:26:35;25.30;70.70
36424;DHT22;22458;45.328;9.514;2022-09-09T08:29:03;25.30;70.30
36424;DHT22;22458;45.328;9.514;2022-09-09T08:31:35;25.40;70.20
36424;DHT22;22458;45.328;9.514;2022-09-09T08:34:01;25.60;70.10
36424;DHT22;22458;45.328;9.514;2022-09-09T08:36:32;25.80;69.70
36424;DHT22;22458;45.328;9.514;2022-09-09T08:39:04;25.90;69.40
36424;DHT22;22458;45.328;9.514;2022-09-09T08:49:42;25.90;69.00
36424;DHT22;22458;45.328;9.514;2022-09-09T08:52:27;26.00;68.80
36424;DHT22;22458;45.328;9.514;2022-09-09T08:57:50;25.90;68.90
36424;DHT22;22458;45.328;9.514;2022-09-09T09:00:18;25.80;68.90
36424;DHT22;22458;45.328;9.514;2022-09-09T09:02:49;25.70;68.80
36424;DHT22;22458;45.328;9.514;2022-09-09T09:05:45;25.70;68.80
36424;DHT22;22458;45.328;9.514;2022-09-09T09:10:51;25.60;69.60
36424;DHT22;22458;45.328;9.514;2022-09-09T09:13:32;25.60;70.50
36424;DHT22;22458;45.328;9.514;2022-09-09T09:16:17;25.50;71.40
36424;DHT22;22458;45.328;9.514;2022-09-09T09:18:45;25.40;72.40
36424;DHT22;22458;45.328;9.514;2022-09-09T09:23:59;25.20;73.90
36424;DHT22;22458;45.328;9.514;2022-09-09T09:26:33;25.10;74.10
36424;DHT22;22458;45.328;9.514;2022-09-09T09:29:11;25.00;74.40
36424;DHT22;22458;45.328;9.514;2022-09-09T09:31:38;24.90;74.80
36424;DHT22;22458;45.328;9.514;2022-09-09T09:34:04;24.90;75.00
36424;DHT22;22458;45.328;9.514;2022-09-09T09:36:42;24.80;75.50
36424;DHT22;22458;45.328;9.514;2022-09-09T09:39:26;24.90;76.00
36424;DHT22;22458;45.328;9.514;2022-09-09T09:41:57;25.00;76.40
36424;DHT22;22458;45.328;9.514;2022-09-09T09:46:51;25.20;76.90
36424;DHT22;22458;45.328;9.514;2022-09-09T09:49:17;25.20;77.00
36424;DHT22;22458;45.328;9.514;2022-09-09T09:51:43;25.40;76.70
36424;DHT22;22458;45.328;9.514;2022-09-09T09:56:39;25.50;75.10
36424;DHT22;22458;45.328;9.514;2022-09-09T10:01:54;25.60;73.60
36424;DHT22;22458;45.328;9.514;2022-09-09T10:04:22;25.60;73.60
36424;DHT22;22458;45.328;9.514;2022-09-09T10:06:53;25.70;73.50
36424;DHT22;22458;45.328;9.514;2022-09-09T10:09:25;25.80;73.60
36424;DHT22;22458;45.328;9.514;2022-09-09T10:11:54;26.00;73.50
36424;DHT22;22458;45.328;9.514;2022-09-09T10:17:40;26.20;72.20
36424;DHT22;22458;45.328;9.514;2022-09-09T10:35:34;26.40;70.80
36424;DHT22;22458;45.328;9.514;2022-09-09T10:40:43;27.50;65.60
36424;DHT22;22458;45.328;9.514;2022-09-09T10:46:19;27.70;65.50
36424;DHT22;22458;45.328;9.514;2022-09-09T10:56:34;27.90;64.50
36424;DHT22;22458;45.328;9.514;2022-09-09T10:59:16;27.90;64.90
36424;DHT22;22458;45.328;9.514;2022-09-09T11:02:05;28.00;65.00
36424;DHT22;22458;45.328;9.514;2022-09-09T11:04:50;28.20;64.60
36424;DHT22;22458;45.328;9.514;2022-09-09T11:07:29;28.40;63.80
36424;DHT22;22458;45.328;9.514;2022-09-09T11:10:02;28.40;63.50
36424;DHT22;22458;45.328;9.514;2022-09-09T11:12:34;28.60;63.00
36424;DHT22;22458;45.328;9.514;2022-09-09T11:15:15;28.90;62.40
36424;DHT22;22458;45.328;9.514;2022-09-09T11:17:46;29.00;62.10
36424;DHT22;22458;45.328;9.514;2022-09-09T11:20:15;29.10;62.00
36424;DHT22;22458;45.328;9.514;2022-09-09T11:22:48;29.00;61.40
36424;DHT22;22458;45.328;9.514;2022-09-09T11:25:37;29.10;61.30
36424;DHT22;22458;45.328;9.514;2022-09-09T11:39:12;29.30;61.00
36424;DHT22;22458;45.328;9.514;2022-09-09T11:41:43;29.20;60.70
36424;DHT22;22458;45.328;9.514;2022-09-09T11:44:11;29.20;61.00
36424;DHT22;22458;45.328;9.514;2022-09-09T11:46:39;29.10;60.90
36424;DHT22;22458;45.328;9.514;2022-09-09T11:49:06;29.10;61.10
36424;DHT22;22458;45.328;9.514;2022-09-09T11:51:33;29.10;61.30
36424;DHT22;22458;45.328;9.514;2022-09-09T11:54:30;29.10;61.10
36424;DHT22;22458;45.328;9.514;2022-09-09T11:56:57;29.20;60.50
36424;DHT22;22458;45.328;9.514;2022-09-09T11:59:31;29.10;60.60
36424;DHT22;22458;45.328;9.514;2022-09-09T12:02:14;29.10;59.80
36424;DHT22;22458;45.328;9.514;2022-09-09T12:04:48;29.10;59.80
36424;DHT22;22458;45.328;9.514;2022-09-09T12:15:02;29.00;59.80
36424;DHT22;22458;45.328;9.514;2022-09-09T12:17:30;29.10;59.60
36424;DHT22;22458;45.328;9.514;2022-09-09T12:20:18;29.10;59.70
36424;DHT22;22458;45.328;9.514;2022-09-09T12:22:52;29.20;59.50
36424;DHT22;22458;45.328;9.514;2022-09-09T12:25:30;29.20;59.60
36424;DHT22;22458;45.328;9.514;2022-09-09T12:31:24;29.40;58.90
36424;DHT22;22458;45.328;9.514;2022-09-09T12:33:52;29.40;58.70
36424;DHT22;22458;45.328;9.514;2022-09-09T12:36:29;29.40;58.80
36424;DHT22;22458;45.328;9.514;2022-09-09T12:38:57;29.40;58.90
36424;DHT22;22458;45.328;9.514;2022-09-09T12:41:27;29.50;58.80
36424;DHT22;22458;45.328;9.514;2022-09-09T12:44:09;29.60;58.40
36424;DHT22;22458;45.328;9.514;2022-09-09T12:46:41;29.70;58.20
36424;DHT22;22458;45.328;9.514;2022-09-09T12:52:02;29.70;58.20
36424;DHT22;22458;45.328;9.514;2022-09-09T12:54:28;29.70;58.20
36424;DHT22;22458;45.328;9.514;2022-09-09T12:56:54;29.70;58.10
36424;DHT22;22458;45.328;9.514;2022-09-09T12:59:36;29.70;58.00
36424;DHT22;22458;45.328;9.514;2022-09-09T13:02:11;29.70;57.80
36424;DHT22;22458;45.328;9.514;2022-09-09T13:04:37;29.70;58.20
36424;DHT22;22458;45.328;9.514;2022-09-09T13:07:06;29.70;58.20
36424;DHT22;22458;45.328;9.514;2022-09-09T13:09:35;29.80;58.00
36424;DHT22;22458;45.328;9.514;2022-09-09T13:12:01;29.90;58.00
36424;DHT22;22458;45.328;9.514;2022-09-09T13:14:34;29.90;57.90
36424;DHT22;22458;45.328;9.514;2022-09-09T13:17:05;30.00;57.80
36424;DHT22;22458;45.328;9.514;2022-09-09T13:19:35;30.10;57.70
36424;DHT22;22458;45.328;9.514;2022-09-09T13:25:13;30.30;58.00
36424;DHT22;22458;45.328;9.514;2022-09-09T13:27:53;30.40;57.50
36424;DHT22;22458;45.328;9.514;2022-09-09T13:32:59;30.30;57.20
36424;DHT22;22458;45.328;9.514;2022-09-09T13:35:26;30.30;57.30
36424;DHT22;22458;45.328;9.514;2022-09-09T13:37:52;30.40;57.00
36424;DHT22;22458;45.328;9.514;2022-09-09T13:40:21;30.40;56.90
36424;DHT22;22458;45.328;9.514;2022-09-09T13:42:50;30.50;56.70
36424;DHT22;22458;45.328;9.514;2022-09-09T13:45:25;30.40;56.50
36424;DHT22;22458;45.328;9.514;2022-09-09T13:47:55;30.50;56.70
36424;DHT22;22458;45.328;9.514;2022-09-09T13:50:28;30.40;56.80
36424;DHT22;22458;45.328;9.514;2022-09-09T13:52:58;30.50;56.70
36424;DHT22;22458;45.328;9.514;2022-09-09T13:55:26;30.60;56.70
36424;DHT22;22458;45.328;9.514;2022-09-09T14:00:22;30.80;56.60
36424;DHT22;22458;45.328;9.514;2022-09-09T14:02:50;30.80;56.10
36424;DHT22;22458;45.328;9.514;2022-09-09T14:05:17;30.80;55.60
36424;DHT22;22458;45.328;9.514;2022-09-09T14:07:43;30.80;55.20
36424;DHT22;22458;45.328;9.514;2022-09-09T14:10:10;30.80;55.30
36424;DHT22;22458;45.328;9.514;2022-09-09T14:12:36;31.00;55.00
36424;DHT22;22458;45.328;9.514;2022-09-09T14:15:03;31.00;54.70
36424;DHT22;22458;45.328;9.514;2022-09-09T14:17:29;31.10;54.50
36424;DHT22;22458;45.328;9.514;2022-09-09T14:19:57;31.20;54.70
36424;DHT22;22458;45.328;9.514;2022-09-09T14:22:24;31.30;54.20
36424;DHT22;22458;45.328;9.514;2022-09-09T14:24:51;31.30;54.00
36424;DHT22;22458;45.328;9.514;2022-09-09T14:27:17;31.40;54.10
36424;DHT22;22458;45.328;9.514;2022-09-09T14:29:44;31.40;53.80
36424;DHT22;22458;45.328;9.514;2022-09-09T14:32:11;31.40;53.60
36424;DHT22;22458;45.328;9.514;2022-09-09T14:34:36;31.50;53.60
36424;DHT22;22458;45.328;9.514;2022-09-09T14:37:03;31.50;53.20
36424;DHT22;22458;45.328;9.514;2022-09-09T14:39:30;31.50;53.30
36424;DHT22;22458;45.328;9.514;2022-09-09T14:41:56;31.50;53.10
36424;DHT22;22458;45.328;9.514;2022-09-09T14:44:21;31.60;53.10
36424;DHT22;22458;45.328;9.514;2022-09-09T14:46:47;31.60;53.00
36424;DHT22;22458;45.328;9.514;2022-09-09T14:49:16;31.70;53.10
36424;DHT22;22458;45.328;9.514;2022-09-09T14:51:42;31.70;52.80
36424;DHT22;22458;45.328;9.514;2022-09-09T14:54:07;31.70;52.70
36424;DHT22;22458;45.328;9.514;2022-09-09T14:56:34;31.80;52.60
36424;DHT22;22458;45.328;9.514;2022-09-09T14:59:03;31.90;52.30
36424;DHT22;22458;45.328;9.514;2022-09-09T15:01:30;32.00;52.00
36424;DHT22;22458;45.328;9.514;2022-09-09T15:04:03;32.00;51.80
36424;DHT22;22458;45.328;9.514;2022-09-09T15:06:31;31.90;51.30
36424;DHT22;22458;45.328;9.514;2022-09-09T15:08:59;31.90;51.20
36424;DHT22;22458;45.328;9.514;2022-09-09T15:11:31;31.80;51.20
36424;DHT22;22458;45.328;9.514;2022-09-09T15:13:58;31.90;51.30
36424;DHT22;22458;45.328;9.514;2022-09-09T15:16:27;32.00;51.20
36424;DHT22;22458;45.328;9.514;2022-09-09T15:18:55;32.30;50.90
36424;DHT22;22458;45.328;9.514;2022-09-09T15:21:22;32.50;50.80
36424;DHT22;22458;45.328;9.514;2022-09-09T15:23:49;32.50;51.00
36424;DHT22;22458;45.328;9.514;2022-09-09T15:26:15;32.60;50.40
36424;DHT22;22458;45.328;9.514;2022-09-09T15:28:44;32.70;49.80
36424;DHT22;22458;45.328;9.514;2022-09-09T15:31:18;32.80;49.50
36424;DHT22;22458;45.328;9.514;2022-09-09T15:33:58;32.90;49.10
36424;DHT22;22458;45.328;9.514;2022-09-09T15:36:38;33.00;49.30
36424;DHT22;22458;45.328;9.514;2022-09-09T15:39:10;32.80;49.20
36424;DHT22;22458;45.328;9.514;2022-09-09T15:41:42;32.50;49.50
36424;DHT22;22458;45.328;9.514;2022-09-09T15:44:08;32.30;50.00
36424;DHT22;22458;45.328;9.514;2022-09-09T15:46:43;32.10;50.00
36424;DHT22;22458;45.328;9.514;2022-09-09T15:49:26;32.00;50.50
36424;DHT22;22458;45.328;9.514;2022-09-09T15:51:59;31.80;50.60
36424;DHT22;22458;45.328;9.514;2022-09-09T15:54:37;31.80;50.80
36424;DHT22;22458;45.328;9.514;2022-09-09T15:57:06;31.70;50.60
36424;DHT22;22458;45.328;9.514;2022-09-09T15:59:32;31.70;50.50
36424;DHT22;22458;45.328;9.514;2022-09-09T16:01:59;31.60;50.30
36424;DHT22;22458;45.328;9.514;2022-09-09T16:04:26;31.50;50.30
36424;DHT22;22458;45.328;9.514;2022-09-09T16:06:55;31.40;50.60
36424;DHT22;22458;45.328;9.514;2022-09-09T16:09:21;31.40;50.90
36424;DHT22;22458;45.328;9.514;2022-09-09T16:11:48;31.40;51.00
36424;DHT22;22458;45.328;9.514;2022-09-09T16:14:14;31.40;51.00
36424;DHT22;22458;45.328;9.514;2022-09-09T16:16:43;31.40;51.00
36424;DHT22;22458;45.328;9.514;2022-09-09T16:19:11;31.30;51.00
36424;DHT22;22458;45.328;9.514;2022-09-09T16:21:43;31.30;50.80
36424;DHT22;22458;45.328;9.514;2022-09-09T16:24:12;31.20;51.10
36424;DHT22;22458;45.328;9.514;2022-09-09T16:26:41;31.20;51.50
36424;DHT22;22458;45.328;9.514;2022-09-09T16:29:09;31.20;51.80
36424;DHT22;22458;45.328;9.514;2022-09-09T16:31:35;31.10;52.10
36424;DHT22;22458;45.328;9.514;2022-09-09T16:34:01;31.10;52.20
36424;DHT22;22458;45.328;9.514;2022-09-09T16:36:30;31.00;52.50
36424;DHT22;22458;45.328;9.514;2022-09-09T16:38:58;31.00;52.70
36424;DHT22;22458;45.328;9.514;2022-09-09T16:41:25;31.00;52.80
36424;DHT22;22458;45.328;9.514;2022-09-09T16:43:54;31.00;53.00
36424;DHT22;22458;45.328;9.514;2022-09-09T16:46:21;30.90;52.90
36424;DHT22;22458;45.328;9.514;2022-09-09T16:48:48;30.90;53.10
36424;DHT22;22458;45.328;9.514;2022-09-09T16:51:23;30.90;53.00
36424;DHT22;22458;45.328;9.514;2022-09-09T16:53:50;30.80;53.10
36424;DHT22;22458;45.328;9.514;2022-09-09T16:56:17;30.80;53.10
36424;DHT22;22458;45.328;9.514;2022-09-09T16:58:49;30.70;53.20
36424;DHT22;22458;45.328;9.514;2022-09-09T17:01:15;30.70;53.60
36424;DHT22;22458;45.328;9.514;2022-09-09T17:03:41;30.60;53.70
36424;DHT22;22458;45.328;9.514;2022-09-09T17:06:12;30.60;54.10
36424;DHT22;22458;45.328;9.514;2022-09-09T17:08:38;30.50;54.30
36424;DHT22;22458;45.328;9.514;2022-09-09T17:11:12;30.50;54.60
36424;DHT22;22458;45.328;9.514;2022-09-09T17:13:40;30.40;55.00
36424;DHT22;22458;45.328;9.514;2022-09-09T17:16:06;30.40;55.10
36424;DHT22;22458;45.328;9.514;2022-09-09T17:18:33;30.30;55.20
36424;DHT22;22458;45.328;9.514;2022-09-09T17:21:12;30.20;55.50
36424;DHT22;22458;45.328;9.514;2022-09-09T17:23:40;30.10;55.80
36424;DHT22;22458;45.328;9.514;2022-09-09T17:26:08;30.00;56.00
36424;DHT22;22458;45.328;9.514;2022-09-09T17:28:35;29.90;56.10
36424;DHT22;22458;45.328;9.514;2022-09-09T17:31:01;29.80;56.20
36424;DHT22;22458;45.328;9.514;2022-09-09T17:33:33;29.80;56.40
36424;DHT22;22458;45.328;9.514;2022-09-09T17:36:00;29.70;56.40
36424;DHT22;22458;45.328;9.514;2022-09-09T17:38:27;29.60;56.30
36424;DHT22;22458;45.328;9.514;2022-09-09T17:41:08;29.60;56.40
36424;DHT22;22458;45.328;9.514;2022-09-09T17:43:35;29.50;56.60
36424;DHT22;22458;45.328;9.514;2022-09-09T17:46:13;29.50;56.80
36424;DHT22;22458;45.328;9.514;2022-09-09T17:48:40;29.30;57.00
36424;DHT22;22458;45.328;9.514;2022-09-09T17:51:08;29.20;57.20
36424;DHT22;22458;45.328;9.514;2022-09-09T17:53:39;29.20;57.20
36424;DHT22;22458;45.328;9.514;2022-09-09T17:56:08;29.10;57.50
36424;DHT22;22458;45.328;9.514;2022-09-09T17:58:35;29.00;57.70